sensor_id;sensor_type;location;lat;lon;timestamp;pressure;altitude;pressure_sealevel;temperature;humidity
28027;BME280;15344;52.342;-1.290;2022-12-18T00:00:10;100746.25;;;4.59;76.57
28027;BME280;15344;52.342;-1.290;2022-12-18T00:02:34;100738.91;;;4.53;75.27
28027;BME280;15344;52.342;-1.290;2022-12-18T00:05:00;100742.17;;;3.71;76.50
28027;BME280;15344;52.342;-1.290;2022-12-18T00:07:25;100743.95;;;3.88;78.52
28027;BME280;15344;52.342;-1.290;2022-12-18T00:09:50;100744.65;;;3.80;80.06
28027;BME280;15344;52.342;-1.290;2022-12-18T00:12:16;100744.09;;;4.12;79.20
28027;BME280;15344;52.342;-1.290;2022-12-18T00:14:41;100745.78;;;3.85;79.46
28027;BME280;15344;52.342;-1.290;2022-12-18T00:17:07;100745.55;;;4.02;79.33
28027;BME280;15344;52.342;-1.290;2022-12-18T00:19:32;100743.68;;;4.33;76.49
28027;BME280;15344;52.342;-1.290;2022-12-18T00:21:58;100741.13;;;4.79;73.78
28027;BME280;15344;52.342;-1.290;2022-12-18T00:24:23;100733.06;;;4.51;74.87
28027;BME280;15344;52.342;-1.290;2022-12-18T00:26:49;100734.60;;;3.89;76.09
28027;BME280;15344;52.342;-1.290;2022-12-18T00:29:14;100734.75;;;4.73;72.63
28027;BME280;15344;52.342;-1.290;2022-12-18T00:31:40;100738.18;;;4.42;73.62
28027;BME280;15344;52.342;-1.290;2022-12-18T00:34:06;100738.80;;;4.61;72.99
28027;BME280;15344;52.342;-1.290;2022-12-18T00:36:33;100740.96;;;4.07;74.36
28027;BME280;15344;52.342;-1.290;2022-12-18T00:38:58;100744.05;;;4.64;73.11
28027;BME280;15344;52.342;-1.290;2022-12-18T00:41:22;100745.64;;;4.20;73.56
28027;BME280;15344;52.342;-1.290;2022-12-18T00:43:47;100742.69;;;4.45;74.66
28027;BME280;15344;52.342;-1.290;2022-12-18T00:46:13;100729.01;;;4.48;73.00
28027;BME280;15344;52.342;-1.290;2022-12-18T00:48:38;100727.10;;;4.66;73.51
28027;BME280;15344;52.342;-1.290;2022-12-18T00:51:04;100727.18;;;4.51;72.95
28027;BME280;15344;52.342;-1.290;2022-12-18T00:53:29;100723.31;;;3.78;76.65
28027;BME280;15344;52.342;-1.290;2022-12-18T00:55:54;100725.37;;;4.06;75.44
28027;BME280;15344;52.342;-1.290;2022-12-18T00:58:20;100718.06;;;4.51;74.02
28027;BME280;15344;52.342;-1.290;2022-12-18T01:00:46;100717.11;;;4.58;75.55
28027;BME280;15344;52.342;-1.290;2022-12-18T01:03:13;100716.62;;;4.25;76.18
28027;BME280;15344;52.342;-1.290;2022-12-18T01:05:39;100717.02;;;4.40;76.30
28027;BME280;15344;52.342;-1.290;2022-12-18T01:08:03;100720.97;;;4.33;75.51
28027;BME280;15344;52.342;-1.290;2022-12-18T01:10:28;100718.10;;;4.43;75.88
28027;BME280;15344;52.342;-1.290;2022-12-18T01:12:53;100718.27;;;4.58;75.58
28027;BME280;15344;52.342;-1.290;2022-12-18T01:15:19;100716.94;;;4.59;75.37
28027;BME280;15344;52.342;-1.290;2022-12-18T01:17:45;100715.19;;;3.94;76.14
28027;BME280;15344;52.342;-1.290;2022-12-18T01:20:11;100711.60;;;4.39;75.24
28027;BME280;15344;52.342;-1.290;2022-12-18T01:22:35;100711.20;;;4.36;73.92
28027;BME280;15344;52.342;-1.290;2022-12-18T01:25:01;100706.39;;;4.18;75.10
28027;BME280;15344;52.342;-1.290;2022-12-18T01:27:26;100694.63;;;4.35;74.82
28027;BME280;15344;52.342;-1.290;2022-12-18T01:29:51;100692.53;;;4.41;75.93
28027;BME280;15344;52.342;-1.290;2022-12-18T01:32:16;100691.03;;;4.35;77.55
28027;BME280;15344;52.342;-1.290;2022-12-18T01:34:42;100686.85;;;4.04;78.60
28027;BME280;15344;52.342;-1.290;2022-12-18T01:37:08;100685.50;;;4.72;77.10
28027;BME280;15344;52.342;-1.290;2022-12-18T01:39:33;100691.46;;;4.05;78.63
28027;BME280;15344;52.342;-1.290;2022-12-18T01:41:59;100686.66;;;4.17;79.51
28027;BME280;15344;52.342;-1.290;2022-12-18T01:46:49;100687.07;;;4.37;78.51
28027;BME280;15344;52.342;-1.290;2022-12-18T01:49:15;100680.23;;;4.49;77.63
28027;BME280;15344;52.342;-1.290;2022-12-18T01:51:40;100679.91;;;4.41;76.84
28027;BME280;15344;52.342;-1.290;2022-12-18T01:54:05;100685.83;;;4.42;78.35
28027;BME280;15344;52.342;-1.290;2022-12-18T01:56:31;100689.14;;;3.66;80.65
28027;BME280;15344;52.342;-1.290;2022-12-18T01:59:01;100687.15;;;4.42;79.62
28027;BME280;15344;52.342;-1.290;2022-12-18T02:01:23;100691.59;;;4.26;79.04
28027;BME280;15344;52.342;-1.290;2022-12-18T02:03:47;100692.51;;;3.77;80.35
28027;BME280;15344;52.342;-1.290;2022-12-18T02:06:15;100695.91;;;4.03;80.51
28027;BME280;15344;52.342;-1.290;2022-12-18T02:08:42;100696.54;;;4.33;78.99
28027;BME280;15344;52.342;-1.290;2022-12-18T02:11:08;100697.65;;;4.47;78.41
28027;BME280;15344;52.342;-1.290;2022-12-18T02:13:35;100700.66;;;4.48;78.77
28027;BME280;15344;52.342;-1.290;2022-12-18T02:15:58;100700.29;;;4.30;78.92
28027;BME280;15344;52.342;-1.290;2022-12-18T02:18:22;100698.01;;;4.73;77.84
28027;BME280;15344;52.342;-1.290;2022-12-18T02:20:51;100707.49;;;4.37;79.89
28027;BME280;15344;52.342;-1.290;2022-12-18T02:23:19;100710.94;;;4.13;80.46
28027;BME280;15344;52.342;-1.290;2022-12-18T02:28:04;100718.11;;;3.90;84.87
28027;BME280;15344;52.342;-1.290;2022-12-18T02:30:30;100721.53;;;3.53;86.91
28027;BME280;15344;52.342;-1.290;2022-12-18T02:32:53;100727.14;;;3.76;87.59
28027;BME280;15344;52.342;-1.290;2022-12-18T02:35:22;100732.54;;;3.11;91.55
28027;BME280;15344;52.342;-1.290;2022-12-18T02:37:45;100728.49;;;3.15;89.86
28027;BME280;15344;52.342;-1.290;2022-12-18T02:40:11;100726.10;;;3.15;89.28
28027;BME280;15344;52.342;-1.290;2022-12-18T02:42:35;100728.15;;;2.68;91.22
28027;BME280;15344;52.342;-1.290;2022-12-18T02:45:01;100725.72;;;3.61;86.49
28027;BME280;15344;52.342;-1.290;2022-12-18T02:47:30;100721.44;;;3.51;86.99
28027;BME280;15344;52.342;-1.290;2022-12-18T02:49:58;100715.45;;;3.63;85.60
28027;BME280;15344;52.342;-1.290;2022-12-18T02:52:24;100711.67;;;4.27;83.18
28027;BME280;15344;52.342;-1.290;2022-12-18T02:54:51;100704.78;;;3.89;83.98
28027;BME280;15344;52.342;-1.290;2022-12-18T02:57:15;100707.71;;;3.85;83.14
28027;BME280;15344;52.342;-1.290;2022-12-18T02:59:37;100711.38;;;3.95;83.23
28027;BME280;15344;52.342;-1.290;2022-12-18T03:02:02;100696.79;;;2.85;87.19
28027;BME280;15344;52.342;-1.290;2022-12-18T03:04:28;100691.76;;;3.82;83.33
28027;BME280;15344;52.342;-1.290;2022-12-18T03:06:50;100686.58;;;4.09;82.57
28027;BME280;15344;52.342;-1.290;2022-12-18T03:09:18;100676.75;;;2.95;85.88
28027;BME280;15344;52.342;-1.290;2022-12-18T03:11:46;100683.71;;;2.58;87.20
28027;BME280;15344;52.342;-1.290;2022-12-18T03:14:07;100686.63;;;3.04;84.73
28027;BME280;15344;52.342;-1.290;2022-12-18T03:16:34;100682.42;;;3.46;83.32
28027;BME280;15344;52.342;-1.290;2022-12-18T03:19:01;100680.24;;;3.54;81.89
28027;BME280;15344;52.342;-1.290;2022-12-18T03:21:28;100667.65;;;2.55;85.68
28027;BME280;15344;52.342;-1.290;2022-12-18T03:23:50;100662.79;;;3.26;83.20
28027;BME280;15344;52.342;-1.290;2022-12-18T03:26:16;100658.33;;;2.94;86.28
28027;BME280;15344;52.342;-1.290;2022-12-18T03:28:43;100650.99;;;1.71;88.31
28027;BME280;15344;52.342;-1.290;2022-12-18T03:31:05;100650.92;;;2.77;85.63
28027;BME280;15344;52.342;-1.290;2022-12-18T03:33:34;100650.46;;;1.88;91.38
28027;BME280;15344;52.342;-1.290;2022-12-18T03:35:55;100647.87;;;1.95;89.71
28027;BME280;15344;52.342;-1.290;2022-12-18T03:38:21;100635.58;;;2.68;87.86
28027;BME280;15344;52.342;-1.290;2022-12-18T03:40:53;100631.64;;;1.87;90.43
28027;BME280;15344;52.342;-1.290;2022-12-18T03:43:19;100625.25;;;2.31;89.80
28027;BME280;15344;52.342;-1.290;2022-12-18T03:45:42;100616.76;;;2.50;89.84
28027;BME280;15344;52.342;-1.290;2022-12-18T03:48:07;100621.59;;;1.79;92.63
28027;BME280;15344;52.342;-1.290;2022-12-18T03:50:37;100621.69;;;2.30;89.67
28027;BME280;15344;52.342;-1.290;2022-12-18T03:52:59;100623.70;;;2.97;87.61
28027;BME280;15344;52.342;-1.290;2022-12-18T03:55:22;100626.75;;;2.21;90.92
28027;BME280;15344;52.342;-1.290;2022-12-18T03:57:48;100620.80;;;2.97;88.01
28027;BME280;15344;52.342;-1.290;2022-12-18T04:00:14;100611.38;;;2.71;87.23
28027;BME280;15344;52.342;-1.290;2022-12-18T04:02:40;100603.62;;;3.05;86.49
28027;BME280;15344;52.342;-1.290;2022-12-18T04:05:05;100601.12;;;2.98;85.22
28027;BME280;15344;52.342;-1.290;2022-12-18T04:07:27;100598.14;;;3.02;84.41
28027;BME280;15344;52.342;-1.290;2022-12-18T04:09:56;100595.10;;;2.59;88.33
28027;BME280;15344;52.342;-1.290;2022-12-18T04:12:18;100591.67;;;1.96;89.67
28027;BME280;15344;52.342;-1.290;2022-12-18T04:14:44;100586.12;;;2.87;87.16
28027;BME280;15344;52.342;-1.290;2022-12-18T04:17:09;100585.50;;;2.79;88.04
28027;BME280;15344;52.342;-1.290;2022-12-18T04:19:34;100590.27;;;2.50;87.03
28027;BME280;15344;52.342;-1.290;2022-12-18T04:22:00;100591.94;;;2.24;89.91
28027;BME280;15344;52.342;-1.290;2022-12-18T04:24:26;100585.44;;;2.50;91.84
28027;BME280;15344;52.342;-1.290;2022-12-18T04:26:51;100579.35;;;2.55;89.22
28027;BME280;15344;52.342;-1.290;2022-12-18T04:29:17;100586.24;;;2.58;89.01
28027;BME280;15344;52.342;-1.290;2022-12-18T04:31:42;100588.73;;;2.51;89.67
28027;BME280;15344;52.342;-1.290;2022-12-18T04:34:09;100584.31;;;2.76;88.20
28027;BME280;15344;52.342;-1.290;2022-12-18T04:36:34;100575.50;;;3.11;87.06
28027;BME280;15344;52.342;-1.290;2022-12-18T04:38:59;100571.82;;;2.50;88.08
28027;BME280;15344;52.342;-1.290;2022-12-18T04:41:25;100564.27;;;2.99;86.62
28027;BME280;15344;52.342;-1.290;2022-12-18T04:43:50;100555.36;;;3.01;85.32
28027;BME280;15344;52.342;-1.290;2022-12-18T04:46:16;100553.22;;;2.74;86.62
28027;BME280;15344;52.342;-1.290;2022-12-18T04:48:41;100543.66;;;2.16;90.66
28027;BME280;15344;52.342;-1.290;2022-12-18T04:51:07;100534.80;;;1.55;94.07
28027;BME280;15344;52.342;-1.290;2022-12-18T04:53:33;100528.03;;;2.22;88.93
28027;BME280;15344;52.342;-1.290;2022-12-18T04:56:04;100514.61;;;0.84;94.39
28027;BME280;15344;52.342;-1.290;2022-12-18T04:58:23;100503.15;;;1.04;96.02
28027;BME280;15344;52.342;-1.290;2022-12-18T05:00:49;100496.71;;;2.15;91.12
28027;BME280;15344;52.342;-1.290;2022-12-18T05:03:14;100492.13;;;0.90;94.83
28027;BME280;15344;52.342;-1.290;2022-12-18T05:05:39;100484.87;;;1.36;98.85
28027;BME280;15344;52.342;-1.290;2022-12-18T05:08:05;100479.93;;;1.97;94.93
28027;BME280;15344;52.342;-1.290;2022-12-18T05:10:30;100472.86;;;1.30;97.68
28027;BME280;15344;52.342;-1.290;2022-12-18T05:12:55;100472.84;;;1.17;96.64
28027;BME280;15344;52.342;-1.290;2022-12-18T05:15:21;100466.89;;;1.63;97.84
28027;BME280;15344;52.342;-1.290;2022-12-18T05:17:46;100462.41;;;1.37;96.05
28027;BME280;15344;52.342;-1.290;2022-12-18T05:20:11;100468.29;;;2.05;91.47
28027;BME280;15344;52.342;-1.290;2022-12-18T05:22:36;100463.48;;;0.73;96.22
28027;BME280;15344;52.342;-1.290;2022-12-18T05:25:03;100457.03;;;1.99;94.27
28027;BME280;15344;52.342;-1.290;2022-12-18T05:27:27;100453.91;;;0.64;99.67
28027;BME280;15344;52.342;-1.290;2022-12-18T05:29:53;100454.65;;;1.56;95.39
28027;BME280;15344;52.342;-1.290;2022-12-18T05:32:19;100460.69;;;2.17;91.20
28027;BME280;15344;52.342;-1.290;2022-12-18T05:34:45;100463.95;;;1.71;90.98
28027;BME280;15344;52.342;-1.290;2022-12-18T05:37:10;100451.83;;;2.71;88.45
28027;BME280;15344;52.342;-1.290;2022-12-18T05:39:35;100449.01;;;3.11;85.72
28027;BME280;15344;52.342;-1.290;2022-12-18T05:42:00;100466.97;;;2.86;86.85
28027;BME280;15344;52.342;-1.290;2022-12-18T05:44:25;100475.63;;;2.15;89.50
28027;BME280;15344;52.342;-1.290;2022-12-18T05:46:50;100473.59;;;2.30;89.96
28027;BME280;15344;52.342;-1.290;2022-12-18T05:49:17;100475.95;;;1.42;91.90
28027;BME280;15344;52.342;-1.290;2022-12-18T05:51:42;100473.41;;;2.20;93.16
28027;BME280;15344;52.342;-1.290;2022-12-18T05:54:07;100458.77;;;2.54;91.22
28027;BME280;15344;52.342;-1.290;2022-12-18T05:56:32;100454.59;;;3.39;86.14
28027;BME280;15344;52.342;-1.290;2022-12-18T05:58:58;100457.65;;;1.99;91.86
28027;BME280;15344;52.342;-1.290;2022-12-18T06:01:25;100457.08;;;1.91;90.44
28027;BME280;15344;52.342;-1.290;2022-12-18T06:03:48;100460.95;;;1.82;92.48
28027;BME280;15344;52.342;-1.290;2022-12-18T06:06:15;100461.17;;;2.21;89.97
28027;BME280;15344;52.342;-1.290;2022-12-18T06:08:40;100456.41;;;2.88;84.80
28027;BME280;15344;52.342;-1.290;2022-12-18T06:11:05;100450.21;;;1.72;89.01
28027;BME280;15344;52.342;-1.290;2022-12-18T06:13:30;100439.59;;;2.26;89.88
28027;BME280;15344;52.342;-1.290;2022-12-18T06:15:56;100445.32;;;2.71;87.68
28027;BME280;15344;52.342;-1.290;2022-12-18T06:18:21;100448.47;;;2.66;87.20
28027;BME280;15344;52.342;-1.290;2022-12-18T06:20:55;100445.07;;;1.72;91.46
28027;BME280;15344;52.342;-1.290;2022-12-18T06:23:12;100437.87;;;2.19;89.59
28027;BME280;15344;52.342;-1.290;2022-12-18T06:25:39;100434.27;;;1.66;90.93
28027;BME280;15344;52.342;-1.290;2022-12-18T06:28:04;100432.04;;;1.75;91.15
28027;BME280;15344;52.342;-1.290;2022-12-18T06:30:29;100426.34;;;1.72;93.73
28027;BME280;15344;52.342;-1.290;2022-12-18T06:32:54;100434.09;;;0.86;98.47
28027;BME280;15344;52.342;-1.290;2022-12-18T06:35:20;100432.60;;;1.04;96.75
28027;BME280;15344;52.342;-1.290;2022-12-18T06:37:46;100437.29;;;1.02;100.00
28027;BME280;15344;52.342;-1.290;2022-12-18T06:40:11;100433.26;;;0.94;100.00
28027;BME280;15344;52.342;-1.290;2022-12-18T06:42:37;100440.83;;;0.27;100.00
28027;BME280;15344;52.342;-1.290;2022-12-18T06:45:03;100441.81;;;0.71;100.00
28027;BME280;15344;52.342;-1.290;2022-12-18T06:47:28;100438.30;;;1.18;99.05
28027;BME280;15344;52.342;-1.290;2022-12-18T06:49:53;100421.28;;;1.26;96.22
28027;BME280;15344;52.342;-1.290;2022-12-18T06:52:19;100412.40;;;0.05;100.00
28027;BME280;15344;52.342;-1.290;2022-12-18T06:54:45;100406.59;;;1.09;100.00
28027;BME280;15344;52.342;-1.290;2022-12-18T06:57:10;100408.20;;;0.95;100.00
28027;BME280;15344;52.342;-1.290;2022-12-18T06:59:36;100402.13;;;1.46;98.47
28027;BME280;15344;52.342;-1.290;2022-12-18T07:02:01;100399.89;;;1.60;95.63
28027;BME280;15344;52.342;-1.290;2022-12-18T07:04:28;100398.17;;;1.06;98.31
28027;BME280;15344;52.342;-1.290;2022-12-18T07:06:52;100398.37;;;1.44;97.01
28027;BME280;15344;52.342;-1.290;2022-12-18T07:09:17;100393.74;;;1.60;96.66
28027;BME280;15344;52.342;-1.290;2022-12-18T07:11:43;100385.93;;;1.60;98.19
28027;BME280;15344;52.342;-1.290;2022-12-18T07:14:08;100375.35;;;1.78;94.27
28027;BME280;15344;52.342;-1.290;2022-12-18T07:16:33;100370.61;;;1.77;94.87
28027;BME280;15344;52.342;-1.290;2022-12-18T07:18:59;100364.11;;;1.65;94.93
28027;BME280;15344;52.342;-1.290;2022-12-18T07:21:25;100361.98;;;2.08;94.07
28027;BME280;15344;52.342;-1.290;2022-12-18T07:23:50;100368.51;;;1.95;94.69
28027;BME280;15344;52.342;-1.290;2022-12-18T07:26:17;100374.99;;;1.39;93.70
28027;BME280;15344;52.342;-1.290;2022-12-18T07:28:41;100371.53;;;2.67;88.52
28027;BME280;15344;52.342;-1.290;2022-12-18T07:31:08;100375.10;;;2.67;90.49
28027;BME280;15344;52.342;-1.290;2022-12-18T07:33:32;100380.27;;;2.19;90.19
28027;BME280;15344;52.342;-1.290;2022-12-18T07:35:58;100385.19;;;2.36;90.57
28027;BME280;15344;52.342;-1.290;2022-12-18T07:38:22;100380.92;;;2.27;91.96
28027;BME280;15344;52.342;-1.290;2022-12-18T07:40:48;100391.86;;;2.57;89.54
28027;BME280;15344;52.342;-1.290;2022-12-18T07:43:13;100401.25;;;2.00;92.25
28027;BME280;15344;52.342;-1.290;2022-12-18T07:45:39;100407.75;;;2.34;93.51
28027;BME280;15344;52.342;-1.290;2022-12-18T07:48:05;100405.44;;;2.83;87.59
28027;BME280;15344;52.342;-1.290;2022-12-18T07:50:30;100402.55;;;1.98;92.37
28027;BME280;15344;52.342;-1.290;2022-12-18T07:52:56;100392.84;;;3.40;86.02
28027;BME280;15344;52.342;-1.290;2022-12-18T07:55:21;100391.88;;;2.07;90.35
28027;BME280;15344;52.342;-1.290;2022-12-18T07:57:46;100403.65;;;2.62;90.86
28027;BME280;15344;52.342;-1.290;2022-12-18T08:00:13;100404.81;;;2.15;90.42
28027;BME280;15344;52.342;-1.290;2022-12-18T08:02:37;100415.30;;;2.24;91.25
28027;BME280;15344;52.342;-1.290;2022-12-18T08:05:03;100406.51;;;2.21;91.58
28027;BME280;15344;52.342;-1.290;2022-12-18T08:07:28;100395.43;;;3.17;87.03
28027;BME280;15344;52.342;-1.290;2022-12-18T08:09:54;100385.85;;;2.73;87.43
28027;BME280;15344;52.342;-1.290;2022-12-18T08:12:19;100385.32;;;2.61;90.39
28027;BME280;15344;52.342;-1.290;2022-12-18T08:14:44;100379.80;;;2.75;89.82
28027;BME280;15344;52.342;-1.290;2022-12-18T08:17:09;100382.96;;;3.26;85.39
28027;BME280;15344;52.342;-1.290;2022-12-18T08:19:35;100372.46;;;1.44;93.08
28027;BME280;15344;52.342;-1.290;2022-12-18T08:22:01;100385.09;;;2.46;93.16
28027;BME280;15344;52.342;-1.290;2022-12-18T08:24:26;100379.31;;;1.64;96.15
28027;BME280;15344;52.342;-1.290;2022-12-18T08:26:52;100394.92;;;3.54;88.18
28027;BME280;15344;52.342;-1.290;2022-12-18T08:29:18;100389.14;;;3.88;85.60
28027;BME280;15344;52.342;-1.290;2022-12-18T08:31:43;100414.92;;;3.48;86.85
28027;BME280;15344;52.342;-1.290;2022-12-18T08:34:09;100399.44;;;3.45;86.33
28027;BME280;15344;52.342;-1.290;2022-12-18T08:36:34;100392.36;;;3.50;87.12
28027;BME280;15344;52.342;-1.290;2022-12-18T08:38:59;100382.79;;;3.50;87.23
28027;BME280;15344;52.342;-1.290;2022-12-18T08:41:25;100364.49;;;2.71;91.77
28027;BME280;15344;52.342;-1.290;2022-12-18T08:43:50;100398.62;;;2.77;90.11
28027;BME280;15344;52.342;-1.290;2022-12-18T08:46:15;100374.48;;;2.83;89.73
28027;BME280;15344;52.342;-1.290;2022-12-18T08:48:41;100368.99;;;2.89;91.57
28027;BME280;15344;52.342;-1.290;2022-12-18T08:51:07;100395.36;;;2.74;92.35
28027;BME280;15344;52.342;-1.290;2022-12-18T08:53:32;100395.31;;;3.73;87.91
28027;BME280;15344;52.342;-1.290;2022-12-18T08:55:58;100362.57;;;2.94;89.71
28027;BME280;15344;52.342;-1.290;2022-12-18T08:58:23;100367.25;;;4.02;85.36
28027;BME280;15344;52.342;-1.290;2022-12-18T09:00:49;100382.66;;;3.79;85.09
28027;BME280;15344;52.342;-1.290;2022-12-18T09:03:16;100383.12;;;3.69;87.34
28027;BME280;15344;52.342;-1.290;2022-12-18T09:05:41;100380.80;;;2.11;95.19
28027;BME280;15344;52.342;-1.290;2022-12-18T09:08:06;100362.41;;;2.64;93.40
28027;BME280;15344;52.342;-1.290;2022-12-18T09:10:31;100352.53;;;3.31;89.45
28027;BME280;15344;52.342;-1.290;2022-12-18T09:12:57;100359.24;;;2.85;90.23
28027;BME280;15344;52.342;-1.290;2022-12-18T09:15:22;100358.31;;;3.05;88.69
28027;BME280;15344;52.342;-1.290;2022-12-18T09:17:48;100356.83;;;3.34;89.06
28027;BME280;15344;52.342;-1.290;2022-12-18T09:20:13;100349.47;;;3.73;87.90
28027;BME280;15344;52.342;-1.290;2022-12-18T09:22:39;100351.25;;;3.49;87.16
28027;BME280;15344;52.342;-1.290;2022-12-18T09:25:04;100351.37;;;3.54;88.07
28027;BME280;15344;52.342;-1.290;2022-12-18T09:27:29;100348.13;;;4.20;85.27
28027;BME280;15344;52.342;-1.290;2022-12-18T09:29:54;100343.90;;;3.89;85.83
28027;BME280;15344;52.342;-1.290;2022-12-18T09:32:20;100336.18;;;4.24;84.78
28027;BME280;15344;52.342;-1.290;2022-12-18T09:34:45;100341.23;;;4.04;85.11
28027;BME280;15344;52.342;-1.290;2022-12-18T09:37:10;100341.03;;;3.85;85.23
28027;BME280;15344;52.342;-1.290;2022-12-18T09:39:36;100339.11;;;3.63;86.67
28027;BME280;15344;52.342;-1.290;2022-12-18T09:42:02;100342.49;;;3.53;86.78
28027;BME280;15344;52.342;-1.290;2022-12-18T09:44:30;100338.19;;;3.89;86.61
28027;BME280;15344;52.342;-1.290;2022-12-18T09:47:03;100333.70;;;3.31;89.69
28027;BME280;15344;52.342;-1.290;2022-12-18T09:49:22;100332.18;;;3.70;87.47
28027;BME280;15344;52.342;-1.290;2022-12-18T09:51:47;100324.22;;;4.49;85.16
28027;BME280;15344;52.342;-1.290;2022-12-18T09:54:14;100315.91;;;3.62;86.09
28027;BME280;15344;52.342;-1.290;2022-12-18T09:56:40;100306.64;;;4.35;84.33
28027;BME280;15344;52.342;-1.290;2022-12-18T09:59:02;100306.25;;;4.06;83.88
28027;BME280;15344;52.342;-1.290;2022-12-18T10:01:27;100299.93;;;4.28;85.57
28027;BME280;15344;52.342;-1.290;2022-12-18T10:03:52;100291.44;;;4.23;84.73
28027;BME280;15344;52.342;-1.290;2022-12-18T10:06:22;100293.95;;;3.38;88.08
28027;BME280;15344;52.342;-1.290;2022-12-18T10:08:45;100285.37;;;4.04;87.85
28027;BME280;15344;52.342;-1.290;2022-12-18T10:11:23;100276.51;;;3.65;88.23
28027;BME280;15344;52.342;-1.290;2022-12-18T10:13:36;100262.07;;;3.34;89.53
28027;BME280;15344;52.342;-1.290;2022-12-18T10:16:05;100246.98;;;3.09;93.34
28027;BME280;15344;52.342;-1.290;2022-12-18T10:18:35;100246.91;;;3.15;93.73
28027;BME280;15344;52.342;-1.290;2022-12-18T10:20:53;100236.78;;;3.27;94.92
28027;BME280;15344;52.342;-1.290;2022-12-18T10:23:20;100230.22;;;2.85;96.47
28027;BME280;15344;52.342;-1.290;2022-12-18T10:25:48;100222.19;;;2.83;97.14
28027;BME280;15344;52.342;-1.290;2022-12-18T10:28:11;100205.97;;;3.44;96.27
28027;BME280;15344;52.342;-1.290;2022-12-18T10:30:32;100199.52;;;2.52;100.00
28027;BME280;15344;52.342;-1.290;2022-12-18T10:33:01;100188.45;;;1.97;100.00
28027;BME280;15344;52.342;-1.290;2022-12-18T10:35:25;100189.74;;;1.89;100.00
28027;BME280;15344;52.342;-1.290;2022-12-18T10:40:15;100184.70;;;1.98;100.00
28027;BME280;15344;52.342;-1.290;2022-12-18T10:42:39;100175.82;;;1.93;100.00
28027;BME280;15344;52.342;-1.290;2022-12-18T10:45:10;100169.21;;;2.06;100.00
28027;BME280;15344;52.342;-1.290;2022-12-18T10:47:30;100161.13;;;1.66;100.00
28027;BME280;15344;52.342;-1.290;2022-12-18T10:49:55;100149.75;;;2.71;100.00
28027;BME280;15344;52.342;-1.290;2022-12-18T10:52:22;100149.54;;;2.40;100.00
28027;BME280;15344;52.342;-1.290;2022-12-18T10:54:50;100140.34;;;1.74;100.00
28027;BME280;15344;52.342;-1.290;2022-12-18T10:57:16;100139.57;;;2.12;100.00
28027;BME280;15344;52.342;-1.290;2022-12-18T11:02:23;100131.58;;;0.94;100.00
28027;BME280;15344;52.342;-1.290;2022-12-18T11:04:30;100121.38;;;2.95;100.00
28027;BME280;15344;52.342;-1.290;2022-12-18T11:06:57;100119.75;;;2.77;100.00
28027;BME280;15344;52.342;-1.290;2022-12-18T11:09:20;100119.34;;;1.53;100.00
28027;BME280;15344;52.342;-1.290;2022-12-18T11:11:48;100112.34;;;2.40;100.00
28027;BME280;15344;52.342;-1.290;2022-12-18T11:14:16;100108.96;;;3.10;100.00
28027;BME280;15344;52.342;-1.290;2022-12-18T11:16:42;100101.83;;;2.95;100.00
28027;BME280;15344;52.342;-1.290;2022-12-18T11:19:11;100100.66;;;2.97;100.00
28027;BME280;15344;52.342;-1.290;2022-12-18T11:21:26;100093.55;;;2.69;100.00
28027;BME280;15344;52.342;-1.290;2022-12-18T11:23:53;100097.35;;;2.87;100.00
28027;BME280;15344;52.342;-1.290;2022-12-18T11:26:18;100103.21;;;2.73;100.00
28027;BME280;15344;52.342;-1.290;2022-12-18T11:28:46;100110.95;;;3.01;100.00
28027;BME280;15344;52.342;-1.290;2022-12-18T11:31:20;100125.33;;;2.69;100.00
28027;BME280;15344;52.342;-1.290;2022-12-18T11:33:35;100130.43;;;2.72;100.00
28027;BME280;15344;52.342;-1.290;2022-12-18T11:36:02;100115.47;;;3.08;100.00
28027;BME280;15344;52.342;-1.290;2022-12-18T11:38:28;100105.51;;;3.59;100.00
28027;BME280;15344;52.342;-1.290;2022-12-18T11:40:58;100095.88;;;3.44;100.00
28027;BME280;15344;52.342;-1.290;2022-12-18T11:43:21;100091.70;;;3.50;100.00
28027;BME280;15344;52.342;-1.290;2022-12-18T11:45:50;100081.26;;;2.77;100.00
28027;BME280;15344;52.342;-1.290;2022-12-18T11:48:15;100076.40;;;2.75;100.00
28027;BME280;15344;52.342;-1.290;2022-12-18T11:50:43;100072.83;;;2.30;100.00
28027;BME280;15344;52.342;-1.290;2022-12-18T11:53:00;100068.39;;;2.43;100.00
28027;BME280;15344;52.342;-1.290;2022-12-18T11:55:31;100054.00;;;2.86;100.00
28027;BME280;15344;52.342;-1.290;2022-12-18T11:57:56;100045.01;;;3.30;100.00
28027;BME280;15344;52.342;-1.290;2022-12-18T12:00:18;100029.75;;;2.80;100.00
28027;BME280;15344;52.342;-1.290;2022-12-18T12:05:16;100009.26;;;3.01;100.00
28027;BME280;15344;52.342;-1.290;2022-12-18T12:07:41;100009.55;;;2.99;100.00
28027;BME280;15344;52.342;-1.290;2022-12-18T12:10:08;100004.21;;;3.06;100.00
28027;BME280;15344;52.342;-1.290;2022-12-18T12:12:34;99991.53;;;3.39;100.00
28027;BME280;15344;52.342;-1.290;2022-12-18T12:14:56;99986.51;;;3.42;100.00
28027;BME280;15344;52.342;-1.290;2022-12-18T12:17:21;99980.72;;;3.18;100.00
28027;BME280;15344;52.342;-1.290;2022-12-18T12:19:46;99971.80;;;3.44;100.00
28027;BME280;15344;52.342;-1.290;2022-12-18T12:22:11;99969.07;;;3.66;100.00
28027;BME280;15344;52.342;-1.290;2022-12-18T12:24:37;99965.82;;;3.17;100.00
28027;BME280;15344;52.342;-1.290;2022-12-18T12:27:03;99957.82;;;3.46;100.00
28027;BME280;15344;52.342;-1.290;2022-12-18T12:29:32;99948.22;;;3.63;100.00
28027;BME280;15344;52.342;-1.290;2022-12-18T12:31:57;99942.25;;;3.62;100.00
28027;BME280;15344;52.342;-1.290;2022-12-18T12:34:17;99938.35;;;3.74;100.00
28027;BME280;15344;52.342;-1.290;2022-12-18T12:36:43;99931.95;;;3.09;100.00
28027;BME280;15344;52.342;-1.290;2022-12-18T12:39:07;99927.61;;;3.31;100.00
28027;BME280;15344;52.342;-1.290;2022-12-18T12:41:31;99919.67;;;3.58;100.00
28027;BME280;15344;52.342;-1.290;2022-12-18T12:43:55;99903.51;;;3.37;100.00
28027;BME280;15344;52.342;-1.290;2022-12-18T12:46:21;99896.82;;;3.06;100.00
28027;BME280;15344;52.342;-1.290;2022-12-18T12:48:47;99896.70;;;2.68;100.00